KLNN

Details ICAO KLNN (LNN)
Name WILLOUGHBY LOST NATION MUNI
Region United States
Timezone America/New_York (UTC-4.0)
Plans Departing 11
Arriving 1
Stats Elevation 626 ft / 191 m (AMSL)
Location 41.683902° -81.389639°
Runways 2
Magnetic Variation 8.620° W
Sunrise 2018-05-21 10:01:59 UTC / 2018-05-21 06:01:59 Local
Sunset 2018-05-22 00:45:12 UTC / 2018-05-21 20:45:12 Local
Advertisement - Login to hide

Runways

ID Width Length Bearing (true) Bearing (mag) Surface Threshold Offset Overrun Length
05 100 ft / 30 m 5,025 ft / 1,532 m 44.48° 53.10° Asphalt 428 ft / 130 m 0 ft / 0 m
10 100 ft / 30 m 4,262 ft / 1,299 m 90.51° 99.13° Asphalt 400 ft / 122 m 0 ft / 0 m
23 100 ft / 30 m 5,025 ft / 1,532 m 224.49° 233.11° Asphalt 0 ft / 0 m 0 ft / 0 m
28 100 ft / 30 m 4,262 ft / 1,299 m 270.52° 279.14° Asphalt 1,124 ft / 343 m 0 ft / 0 m

Map

Weather


0- 5 10 15 20 25 30 35+ Temperature / ° C

Clouds and Precipitation
Forecast for 2018-05-21 12:00 UTC. Updated 2 hours ago

Ground ~20,000 ft ~40,000 ft Winds

METAR

KLNN 211335Z AUTO 06003KT 10SM CLR 15/09 A3023 RMK AO1 T01480093

TAF

Not found

Frequencies

Unicom 122.72 MHz CTAF/UNICOM
Approach 125.35 MHz CLEVELAND APP/DEP
Warning: Do not use this data for real-world aviation or navigation. No guarantee of current accuracy is given.